Time;durP1;ratioP1;P1;durP2;ratioP2;P2;SDS_P1;SDS_P2;PMS_P1;PMS_P2;Temp;Humidity;BMP_temperature;BMP_pressure;BME280_temperature;BME280_humidity;BME280_pressure;Samples;Min_cycle;Max_cycle;Signal;HPM_P1;HPM_P2
2023/06/14 03:59:25;;;;;;;1.65;1.58;;;;;;;;;;5581977;22;20687;-65
2023/06/14 04:01:53;;;;;;;2.45;2.30;;;;;;;;;;5017853;28;20656;-65
2023/06/14 04:04:21;;;;;;;1.95;1.85;;;;;;;;;;5017911;28;20198;-66
2023/06/14 04:06:49;;;;;;;1.75;1.65;;;;;;;;;;5017693;28;20202;-66
2023/06/14 04:09:17;;;;;;;2.42;2.22;;;;;;;;;;5017542;28;20264;-66
2023/06/14 04:11:45;;;;;;;1.70;1.70;;;;;;;;;;5017750;28;20209;-66
2023/06/14 04:14:12;;;;;;;1.85;1.70;;;;;;;;;;5041384;22;20572;-67
2023/06/14 04:16:41;;;;;;;2.08;1.98;;;;;;;;;;5017644;28;20206;-67
2023/06/14 04:19:08;;;;;;;2.05;1.95;;;;;;;;;;5017615;28;20214;-67
2023/06/14 04:21:35;;;;;;;5.05;2.60;;;;;;;;;;5017609;28;20212;-68
2023/06/14 04:24:02;;;;;;;2.97;2.28;;;;;;;;;;5017495;28;20217;-68
2023/06/14 04:26:29;;;;;;;1.60;1.60;;;;;;;;;;5017356;28;20206;-66
2023/06/14 04:29:01;;;;;;;2.67;1.88;;;;;;;;;;5017141;28;20252;-67
2023/06/14 04:31:29;;;;;;;1.83;1.70;;;;;;;;;;5017067;28;20191;-67
2023/06/14 04:33:59;;;;;;;2.05;1.98;;;;;;;;;;5017181;28;20222;-69
2023/06/14 04:36:27;;;;;;;1.80;1.70;;;;;;;;;;5017012;28;20202;-70
2023/06/14 04:38:55;;;;;;;2.90;2.00;;;;;;;;;;5017056;28;20256;-70
2023/06/14 04:41:22;;;;;;;1.85;1.75;;;;;;;;;;5017304;28;20201;-67
2023/06/14 04:43:49;;;;;;;2.25;2.15;;;;;;;;;;5018278;28;20224;-67
2023/06/14 04:46:17;;;;;;;2.10;2.00;;;;;;;;;;5017494;28;20611;-68
2023/06/14 04:48:45;;;;;;;3.13;1.90;;;;;;;;;;5017268;28;20232;-67
2023/06/14 04:51:15;;;;;;;1.90;1.80;;;;;;;;;;5016720;28;20210;-68
2023/06/14 04:53:43;;;;;;;1.90;1.80;;;;;;;;;;5016547;28;20230;-68
2023/06/14 04:56:11;;;;;;;2.10;2.00;;;;;;;;;;5016560;28;20213;-70
2023/06/14 04:58:38;;;;;;;2.00;1.90;;;;;;;;;;5016605;28;20233;-70
2023/06/14 05:01:05;;;;;;;2.28;2.10;;;;;;;;;;5016365;28;20669;-70
2023/06/14 05:03:34;;;;;;;2.13;2.03;;;;;;;;;;5017578;28;20213;-70
2023/06/14 05:06:01;;;;;;;2.47;2.28;;;;;;;;;;5016539;28;20665;-68
2023/06/14 05:08:29;;;;;;;2.50;2.40;;;;;;;;;;5016467;28;20198;-67
2023/06/14 10:40:33;;;;;;;3.03;1.92;;;;;;;;;;4993476;28;20612;-66
2023/06/14 10:43:00;;;;;;;2.30;2.20;;;;;;;;;;4994738;28;20543;-65
2023/06/14 10:45:27;;;;;;;2.85;2.65;;;;;;;;;;4994937;28;20691;-66
2023/06/14 10:47:54;;;;;;;2.53;2.35;;;;;;;;;;4992620;28;20209;-66
2023/06/14 10:50:29;;;;;;;2.95;2.10;;;;;;;;;;4975470;28;20211;-66
2023/06/14 10:52:56;;;;;;;2.38;2.17;;;;;;;;;;4975908;28;20222;-72
2023/06/14 10:55:24;;;;;;;2.25;2.15;;;;;;;;;;4975599;28;20199;-65
2023/06/14 10:57:56;;;;;;;2.38;2.17;;;;;;;;;;4975263;28;20206;-65
2023/06/14 11:00:24;;;;;;;2.70;2.55;;;;;;;;;;4975288;28;20194;-66
2023/06/14 11:03:07;;;;;;;2.70;2.50;;;;;;;;;;4975436;28;20203;-65
2023/06/14 11:05:41;;;;;;;2.45;2.35;;;;;;;;;;4975244;28;20246;-65
2023/06/14 11:08:27;;;;;;;2.00;1.90;;;;;;;;;;4974682;28;20293;-65
2023/06/14 11:10:56;;;;;;;1.85;1.85;;;;;;;;;;4975013;28;20281;-65
2023/06/14 11:13:26;;;;;;;2.08;1.98;;;;;;;;;;4974887;28;20234;-65
2023/06/14 11:15:54;;;;;;;1.77;1.67;;;;;;;;;;4975672;28;20191;-65
2023/06/14 11:18:25;;;;;;;1.70;1.55;;;;;;;;;;4975204;28;20277;-65
2023/06/14 11:20:52;;;;;;;1.83;1.73;;;;;;;;;;4975098;28;20191;-66
2023/06/14 11:23:19;;;;;;;1.92;1.83;;;;;;;;;;4974621;28;20677;-65
2023/06/14 11:25:51;;;;;;;2.20;2.10;;;;;;;;;;4974937;28;20253;-65
2023/06/14 11:28:19;;;;;;;2.10;2.00;;;;;;;;;;4974806;28;20223;-66
2023/06/14 11:30:47;;;;;;;2.80;2.60;;;;;;;;;;4974629;28;20744;-65
2023/06/14 11:33:18;;;;;;;1.88;1.80;;;;;;;;;;4974796;28;20207;-65
2023/06/14 11:35:46;;;;;;;2.10;2.00;;;;;;;;;;4974738;28;20222;-65
2023/06/14 11:38:13;;;;;;;2.50;2.20;;;;;;;;;;4974823;28;20254;-65
2023/06/14 11:40:40;;;;;;;2.75;2.53;;;;;;;;;;4974705;28;20226;-65
2023/06/14 11:43:07;;;;;;;2.10;2.00;;;;;;;;;;4974753;28;20194;-65
2023/06/14 11:45:35;;;;;;;2.25;2.15;;;;;;;;;;4974931;28;20199;-65
2023/06/14 11:48:03;;;;;;;6.32;2.15;;;;;;;;;;4974471;28;20226;-66
2023/06/14 11:50:30;;;;;;;5.07;2.85;;;;;;;;;;4974578;28;20203;-64
2023/06/14 11:52:59;;;;;;;2.60;2.50;;;;;;;;;;4974669;28;20203;-64
2023/06/14 11:55:26;;;;;;;2.83;2.63;;;;;;;;;;4974850;28;20237;-64
2023/06/14 11:57:56;;;;;;;2.92;2.47;;;;;;;;;;4974678;28;20207;-64
2023/06/14 12:00:27;;;;;;;3.00;2.80;;;;;;;;;;4976613;28;20203;-66
2023/06/14 12:02:55;;;;;;;3.30;2.50;;;;;;;;;;4976238;28;20191;-66
2023/06/14 12:05:24;;;;;;;2.40;2.30;;;;;;;;;;4974801;28;20234;-65
2023/06/14 12:07:53;;;;;;;2.25;2.15;;;;;;;;;;4974379;28;20202;-65
2023/06/14 12:10:20;;;;;;;2.35;2.25;;;;;;;;;;4974565;28;20226;-66
2023/06/14 12:12:47;;;;;;;2.33;2.20;;;;;;;;;;4974265;28;20602;-66
2023/06/14 12:15:14;;;;;;;2.80;2.30;;;;;;;;;;4974526;28;20219;-66
2023/06/14 12:17:43;;;;;;;4.07;2.80;;;;;;;;;;4974550;28;20211;-66
2023/06/14 12:20:13;;;;;;;3.28;2.45;;;;;;;;;;4976792;28;20210;-66
2023/06/14 12:22:48;;;;;;;2.80;2.50;;;;;;;;;;4978343;28;20265;-66
2023/06/14 12:25:26;;;;;;;3.53;2.72;;;;;;;;;;4978011;28;20523;-67
2023/06/14 12:27:53;;;;;;;2.80;2.60;;;;;;;;;;4978156;28;20245;-67
2023/06/14 12:30:20;;;;;;;3.47;2.80;;;;;;;;;;4977890;28;20569;-67
2023/06/14 12:32:48;;;;;;;3.33;3.10;;;;;;;;;;4978097;28;20261;-66
2023/06/14 12:35:15;;;;;;;3.00;2.67;;;;;;;;;;4978110;28;20313;-66
2023/06/14 12:37:43;;;;;;;3.28;2.90;;;;;;;;;;4977985;28;20191;-66
2023/06/14 12:40:11;;;;;;;2.97;2.78;;;;;;;;;;4977848;28;20547;-66
2023/06/14 12:42:38;;;;;;;3.00;2.80;;;;;;;;;;4977526;28;20578;-66
2023/06/14 12:45:06;;;;;;;2.50;2.40;;;;;;;;;;4977511;28;20668;-66
2023/06/14 12:47:33;;;;;;;3.22;3.03;;;;;;;;;;4977736;28;20294;-66
2023/06/14 12:50:00;;;;;;;2.78;2.50;;;;;;;;;;4977905;28;20226;-66
2023/06/14 12:52:27;;;;;;;2.92;2.72;;;;;;;;;;4977785;28;20206;-66
2023/06/14 12:54:55;;;;;;;2.88;2.67;;;;;;;;;;4977673;28;20225;-67
2023/06/14 12:57:22;;;;;;;3.00;2.80;;;;;;;;;;4977941;28;20207;-66
2023/06/14 12:59:49;;;;;;;2.80;2.60;;;;;;;;;;4977498;28;20630;-66
2023/06/14 13:02:17;;;;;;;3.10;2.90;;;;;;;;;;4977561;28;20281;-66
2023/06/14 13:04:44;;;;;;;3.60;3.30;;;;;;;;;;4977671;28;20228;-66
2023/06/14 13:07:11;;;;;;;3.25;3.05;;;;;;;;;;4978253;28;20210;-66
2023/06/14 13:09:38;;;;;;;2.90;2.80;;;;;;;;;;4977376;28;20226;-66
2023/06/14 13:12:07;;;;;;;5.88;3.25;;;;;;;;;;4977336;28;20253;-66
2023/06/14 13:14:34;;;;;;;2.63;2.53;;;;;;;;;;4977347;28;20215;-66
2023/06/14 13:17:01;;;;;;;2.63;2.42;;;;;;;;;;4977200;28;20700;-67
2023/06/14 13:19:28;;;;;;;2.75;2.55;;;;;;;;;;4977305;28;20223;-67
2023/06/14 13:21:55;;;;;;;3.72;3.20;;;;;;;;;;4977057;28;20203;-67
2023/06/14 13:24:23;;;;;;;3.72;2.70;;;;;;;;;;4977101;28;20606;-67
2023/06/14 13:26:50;;;;;;;2.75;2.63;;;;;;;;;;4977096;28;20199;-67
2023/06/14 13:29:18;;;;;;;3.20;3.00;;;;;;;;;;4976978;28;20289;-67
2023/06/14 13:31:45;;;;;;;2.88;2.58;;;;;;;;;;4976504;28;20207;-66
2023/06/14 13:34:14;;;;;;;4.90;2.90;;;;;;;;;;4977005;28;20314;-67
2023/06/14 13:36:41;;;;;;;4.07;2.90;;;;;;;;;;4976664;28;20215;-67
2023/06/14 13:39:08;;;;;;;3.13;2.85;;;;;;;;;;4977232;28;20225;-68
2023/06/14 13:41:35;;;;;;;2.83;2.40;;;;;;;;;;4976599;28;20693;-67
2023/06/14 13:44:04;;;;;;;3.13;2.92;;;;;;;;;;4976953;28;20198;-67
2023/06/14 13:46:32;;;;;;;3.20;3.00;;;;;;;;;;4976991;28;20235;-67
2023/06/14 13:49:01;;;;;;;3.25;2.97;;;;;;;;;;4976528;28;20765;-67
2023/06/14 13:51:28;;;;;;;3.67;2.90;;;;;;;;;;4977192;28;20187;-69
2023/06/14 13:53:55;;;;;;;3.20;2.90;;;;;;;;;;4979444;28;20269;-66
2023/06/14 13:56:24;;;;;;;4.65;3.00;;;;;;;;;;4977123;28;20202;-66
2023/06/14 13:58:51;;;;;;;3.47;3.00;;;;;;;;;;4976676;28;20230;-66
2023/06/14 14:01:19;;;;;;;3.60;3.30;;;;;;;;;;4976857;28;20285;-66
2023/06/14 14:03:47;;;;;;;3.45;3.13;;;;;;;;;;4976803;28;20258;-66
2023/06/14 14:06:15;;;;;;;3.20;2.90;;;;;;;;;;4976793;28;20207;-66
2023/06/14 14:08:42;;;;;;;3.67;3.00;;;;;;;;;;4976935;28;20265;-66
2023/06/14 14:11:09;;;;;;;4.45;3.13;;;;;;;;;;4977041;28;20214;-66
2023/06/14 14:13:37;;;;;;;2.83;2.72;;;;;;;;;;4977788;28;20670;-67
2023/06/14 14:16:05;;;;;;;2.70;2.60;;;;;;;;;;4979959;28;20710;-67
2023/06/14 14:18:32;;;;;;;2.72;2.63;;;;;;;;;;4980414;28;20286;-67
2023/06/14 14:21:02;;;;;;;2.80;2.60;;;;;;;;;;4980555;28;20690;-66
2023/06/14 14:23:29;;;;;;;3.95;2.92;;;;;;;;;;4981081;28;20198;-66
2023/06/14 14:25:56;;;;;;;3.85;3.15;;;;;;;;;;4977753;28;20209;-66
2023/06/14 14:28:23;;;;;;;2.95;2.60;;;;;;;;;;4975592;28;20739;-67
2023/06/14 14:30:50;;;;;;;3.25;2.95;;;;;;;;;;4975919;28;20203;-67
2023/06/14 14:33:18;;;;;;;2.97;2.70;;;;;;;;;;4975521;28;20670;-67
2023/06/14 14:35:46;;;;;;;5.38;3.05;;;;;;;;;;4975657;28;20269;-67
2023/06/14 14:38:14;;;;;;;4.53;3.22;;;;;;;;;;4975774;28;20314;-67
2023/06/14 14:40:41;;;;;;;3.00;2.80;;;;;;;;;;4975734;28;20225;-67
2023/06/14 14:43:08;;;;;;;2.85;2.75;;;;;;;;;;4975040;28;20242;-67
2023/06/14 14:45:35;;;;;;;3.13;2.85;;;;;;;;;;4975726;28;20199;-66
2023/06/14 14:48:03;;;;;;;3.33;2.83;;;;;;;;;;4975568;28;20226;-66
2023/06/14 14:50:30;;;;;;;3.45;3.25;;;;;;;;;;4975291;28;20207;-66
2023/06/14 14:52:57;;;;;;;6.88;3.55;;;;;;;;;;4975173;28;20666;-66
2023/06/14 14:55:25;;;;;;;3.50;3.03;;;;;;;;;;4975356;28;20286;-66
2023/06/14 14:57:52;;;;;;;4.93;3.40;;;;;;;;;;4974989;28;20617;-66
2023/06/14 15:00:20;;;;;;;5.05;2.90;;;;;;;;;;4975362;28;20206;-66
2023/06/14 15:02:47;;;;;;;3.35;3.05;;;;;;;;;;4975066;28;20663;-66
2023/06/14 15:05:14;;;;;;;2.80;2.70;;;;;;;;;;4975373;28;20195;-66
2023/06/14 15:07:41;;;;;;;3.72;2.70;;;;;;;;;;4975462;28;20203;-66
2023/06/14 15:10:09;;;;;;;4.75;3.47;;;;;;;;;;4975151;28;20216;-66
2023/06/14 15:12:37;;;;;;;3.20;2.90;;;;;;;;;;4974921;28;20654;-66
2023/06/14 15:15:05;;;;;;;3.10;2.90;;;;;;;;;;4975268;28;20261;-68
2023/06/14 15:17:32;;;;;;;3.65;3.00;;;;;;;;;;4975153;28;20203;-67
2023/06/14 15:19:59;;;;;;;3.22;3.03;;;;;;;;;;4974715;28;20618;-68
2023/06/14 15:22:26;;;;;;;3.30;3.08;;;;;;;;;;4975079;28;20207;-67
2023/06/14 15:24:53;;;;;;;3.53;3.10;;;;;;;;;;4974714;28;20574;-67
2023/06/14 15:27:20;;;;;;;3.28;2.97;;;;;;;;;;4975081;28;20199;-66
2023/06/14 15:29:48;;;;;;;3.25;3.05;;;;;;;;;;4974940;28;20226;-67
2023/06/14 15:32:15;;;;;;;3.45;3.00;;;;;;;;;;4974913;28;20203;-66
2023/06/14 15:34:42;;;;;;;3.45;3.15;;;;;;;;;;4974804;28;20319;-66
2023/06/14 15:37:09;;;;;;;2.55;2.42;;;;;;;;;;4974738;28;20265;-66
2023/06/14 15:39:36;;;;;;;4.15;3.30;;;;;;;;;;4974559;28;20226;-66
2023/06/14 15:42:05;;;;;;;4.95;2.90;;;;;;;;;;4974454;28;20729;-67
2023/06/14 15:44:32;;;;;;;3.22;3.03;;;;;;;;;;4974389;28;20209;-67
2023/06/14 15:47:01;;;;;;;6.18;3.05;;;;;;;;;;4974625;28;20210;-66
2023/06/14 15:49:28;;;;;;;3.47;2.53;;;;;;;;;;4974526;28;20270;-66
2023/06/14 15:51:55;;;;;;;4.22;2.67;;;;;;;;;;4974568;28;20207;-66
2023/06/14 15:54:21;;;;;;;5.15;2.70;;;8.00;99.90;;;;;;4978625;28;20806;-74
2023/06/14 15:56:48;;;;;;;2.53;2.40;;;24.70;27.70;;;;;;4981385;28;20326;-72
2023/06/14 15:59:15;;;;;;;2.72;2.63;;;24.90;27.50;;;;;;4981294;28;20226;-72
2023/06/14 16:01:41;;;;;;;2.90;2.60;;;25.10;26.80;;;;;;4981165;28;20206;-72
2023/06/14 16:04:09;;;;;;;3.83;2.38;;;25.00;26.60;;;;;;4981043;28;20786;-73
2023/06/14 16:06:36;;;;;;;2.42;2.22;;;25.00;26.80;;;;;;4981669;28;20330;-73
2023/06/14 16:09:03;;;;;;;2.95;2.75;;;24.90;26.70;;;;;;4981177;28;20740;-73
2023/06/14 16:11:30;;;;;;;3.10;2.90;;;24.70;26.60;;;;;;4981140;28;20213;-73
2023/06/14 16:13:57;;;;;;;2.60;2.40;;;24.60;26.50;;;;;;4981138;28;20209;-74
2023/06/14 16:16:23;;;;;;;3.00;2.80;;;24.30;26.60;;;;;;4981630;28;20225;-74
2023/06/14 16:18:50;;;;;;;3.33;2.47;;;24.20;26.80;;;;;;4981194;28;20629;-74
2023/06/14 16:21:18;;;;;;;5.18;2.70;;;24.10;26.80;;;;;;4981035;28;20198;-73
2023/06/14 16:23:45;;;;;;;2.72;2.63;;;23.90;27.20;;;;;;4981010;28;20610;-73
2023/06/14 16:26:13;;;;;;;2.58;2.47;;;23.80;27.20;;;;;;4980940;28;20202;-73
2023/06/14 16:28:41;;;;;;;2.30;2.20;;;23.80;26.90;;;;;;4981058;28;20309;-73
2023/06/14 16:31:08;;;;;;;3.53;2.60;;;23.90;27.10;;;;;;4981203;28;20301;-73
2023/06/14 16:33:35;;;;;;;2.50;2.40;;;23.90;26.80;;;;;;4981025;28;20232;-74
2023/06/14 16:36:02;;;;;;;2.45;2.25;;;23.90;27.00;;;;;;4980755;28;20219;-74
2023/06/14 16:38:30;;;;;;;3.70;2.90;;;23.90;27.00;;;;;;4980916;28;20226;-76
2023/06/14 16:40:56;;;;;;;3.67;3.15;;;23.80;26.70;;;;;;4980596;28;20613;-76
2023/06/14 16:43:23;;;;;;;3.13;2.92;;;23.70;27.00;;;;;;4980939;28;20577;-74
2023/06/14 16:45:50;;;;;;;2.40;2.30;;;23.60;27.10;;;;;;4980484;28;20569;-74
2023/06/14 16:48:16;;;;;;;2.83;2.60;;;23.50;27.00;;;;;;4980832;28;20223;-73
2023/06/14 16:50:47;;;;;;;4.22;2.92;;;23.40;26.80;;;;;;4980944;28;20683;-73
2023/06/14 16:53:14;;;;;;;3.40;3.10;;;23.30;27.10;;;;;;4994859;28;20207;-74
2023/06/14 16:55:42;;;;;;;2.55;2.42;;;23.30;27.50;;;;;;4994021;28;20219;-74
2023/06/14 16:58:08;;;;;;;3.00;2.58;;;23.20;27.60;;;;;;4988812;28;20285;-75
2023/06/14 17:00:35;;;;;;;3.20;3.00;;;23.20;27.70;;;;;;4985230;28;20203;-75
2023/06/14 17:03:04;;;;;;;3.38;3.08;;;23.10;27.60;;;;;;4985779;28;20207;-75
2023/06/14 17:05:31;;;;;;;3.58;3.28;;;23.00;27.80;;;;;;4978961;28;20203;-75
2023/06/14 17:07:58;;;;;;;5.82;3.20;;;22.90;28.00;;;;;;4981809;28;20231;-74
2023/06/14 17:10:24;;;;;;;3.30;3.00;;;22.80;28.10;;;;;;4980377;28;20203;-75
2023/06/14 17:12:52;;;;;;;3.50;2.60;;;22.60;28.20;;;;;;4977250;28;20717;-75
2023/06/14 17:15:19;;;;;;;2.72;2.53;;;22.50;28.60;;;;;;4977498;28;20222;-75
2023/06/14 17:17:46;;;;;;;3.17;2.75;;;22.40;28.90;;;;;;4977383;28;20207;-76
2023/06/14 17:20:12;;;;;;;2.72;2.55;;;22.40;29.00;;;;;;4977411;28;20257;-75
2023/06/14 17:22:40;;;;;;;2.80;2.60;;;22.30;29.20;;;;;;4977299;28;20210;-75
2023/06/14 17:25:08;;;;;;;4.47;2.92;;;22.30;29.20;;;;;;4977190;28;20327;-75
2023/06/14 17:27:34;;;;;;;3.88;2.80;;;22.30;29.20;;;;;;4977144;28;20222;-76
2023/06/14 17:30:02;;;;;;;2.97;2.78;;;22.20;29.50;;;;;;4977024;28;20355;-75
2023/06/14 17:32:29;;;;;;;2.75;2.63;;;22.20;29.70;;;;;;4977002;28;20575;-74
2023/06/14 17:34:56;;;;;;;3.28;3.08;;;22.10;29.60;;;;;;4976723;28;20601;-75
2023/06/14 17:37:23;;;;;;;2.95;2.75;;;22.10;30.00;;;;;;4977259;28;20198;-75
2023/06/14 17:39:49;;;;;;;4.72;3.28;;;22.10;30.00;;;;;;4977014;28;20226;-73
2023/06/14 17:42:16;;;;;;;3.33;3.13;;;22.00;29.80;;;;;;4976913;28;20281;-75
2023/06/14 17:44:44;;;;;;;4.45;3.03;;;22.00;29.90;;;;;;4977251;28;20207;-75
2023/06/14 17:47:12;;;;;;;4.00;2.90;;;21.90;29.90;;;;;;4977010;28;20230;-74
2023/06/14 17:49:38;;;;;;;3.03;2.78;;;21.80;30.10;;;;;;4976854;28;20563;-75
2023/06/14 17:52:06;;;;;;;2.55;2.45;;;21.80;30.40;;;;;;4976956;28;20235;-76
2023/06/14 17:54:33;;;;;;;5.07;3.00;;;21.70;30.60;;;;;;4976795;28;20199;-75
2023/06/14 17:56:59;;;;;;;3.17;2.72;;;21.60;30.20;;;;;;4976756;28;20215;-75
2023/06/14 17:59:26;;;;;;;4.72;3.33;;;21.60;30.30;;;;;;4976578;28;20275;-76
2023/06/14 18:01:53;;;;;;;2.70;2.60;;;21.50;30.60;;;;;;4976280;28;20253;-76
2023/06/14 18:04:21;;;;;;;3.10;2.90;;;21.40;30.90;;;;;;4976336;28;20686;-76
2023/06/14 18:06:47;;;;;;;3.53;3.17;;;21.40;30.60;;;;;;4976568;28;20206;-74
2023/06/14 18:09:14;;;;;;;3.45;3.25;;;21.30;30.70;;;;;;4976612;28;20230;-75
2023/06/14 18:11:41;;;;;;;3.42;2.53;;;21.20;31.00;;;;;;4976577;28;20658;-75
2023/06/14 18:14:08;;;;;;;2.88;2.70;;;21.20;31.20;;;;;;4976555;28;20194;-76
2023/06/14 18:16:35;;;;;;;2.53;2.42;;;21.10;31.40;;;;;;4975211;28;20223;-75
2023/06/14 18:19:01;;;;;;;3.00;2.80;;;21.10;31.60;;;;;;4976305;28;20222;-77
2023/06/14 18:21:29;;;;;;;3.28;2.97;;;21.00;31.80;;;;;;4976319;28;20207;-76
2023/06/14 18:23:56;;;;;;;2.38;2.28;;;20.90;31.90;;;;;;4976160;28;20199;-76
2023/06/14 18:26:26;;;;;;;3.08;2.50;;;20.90;32.00;;;;;;4976120;28;20206;-76
2023/06/14 18:28:52;;;;;;;5.63;2.95;;;20.80;32.00;;;;;;4976001;28;20309;-75
2023/06/14 18:31:19;;;;;;;2.55;2.42;;;20.80;33.00;;;;;;4976201;28;20202;-74
2023/06/14 18:33:46;;;;;;;2.72;2.53;;;20.70;32.30;;;;;;4975953;28;20206;-75
2023/06/14 18:36:13;;;;;;;2.47;2.38;;;20.60;32.60;;;;;;4975880;28;20250;-74
2023/06/14 18:38:41;;;;;;;2.35;2.25;;;20.60;32.60;;;;;;4975492;28;20706;-74
2023/06/14 18:41:07;;;;;;;3.13;2.75;;;20.50;32.60;;;;;;4975707;28;20641;-74
2023/06/14 18:43:34;;;;;;;2.80;2.60;;;20.50;32.60;;;;;;4975877;28;20207;-75
2023/06/14 18:46:01;;;;;;;4.00;2.78;;;20.40;33.00;;;;;;4975789;28;20213;-75
2023/06/14 18:48:27;;;;;;;2.53;2.42;;;20.40;33.10;;;;;;4975669;28;20230;-76
2023/06/14 18:50:54;;;;;;;3.47;2.78;;;20.30;33.40;;;;;;4976394;28;20209;-75
2023/06/14 18:53:21;;;;;;;2.63;2.53;;;20.20;33.80;;;;;;4975696;28;20257;-77
2023/06/14 18:55:49;;;;;;;2.60;2.40;;;20.20;33.70;;;;;;4975537;28;20689;-72
2023/06/14 18:58:17;;;;;;;3.03;2.83;;;20.10;33.90;;;;;;4976223;28;20223;-70
2023/06/14 19:00:43;;;;;;;4.82;3.20;;;20.00;34.50;;;;;;4975598;28;20239;-70
2023/06/14 19:03:10;;;;;;;3.03;2.78;;;20.00;34.70;;;;;;4975434;28;20210;-69
2023/06/14 19:05:37;;;;;;;3.30;3.10;;;19.90;34.60;;;;;;4975421;28;20206;-68
2023/06/14 19:08:04;;;;;;;3.17;2.97;;;19.80;34.50;;;;;;4975240;28;20246;-69
2023/06/14 19:10:31;;;;;;;2.75;2.65;;;19.80;35.50;;;;;;4975245;28;20203;-69
2023/06/14 19:12:59;;;;;;;2.85;2.75;;;19.70;35.20;;;;;;4975260;28;20198;-67
2023/06/14 19:15:27;;;;;;;2.50;2.40;;;19.60;35.10;;;;;;4975137;28;20212;-67
2023/06/14 19:17:57;;;;;;;2.47;2.38;;;19.50;35.30;;;;;;4974816;28;20659;-67
2023/06/14 19:20:27;;;;;;;2.40;2.30;;;19.40;35.60;;;;;;4975102;28;20202;-67
2023/06/14 19:22:54;;;;;;;2.53;2.42;;;19.30;35.90;;;;;;4975078;28;20214;-67
2023/06/14 19:25:20;;;;;;;2.13;2.05;;;19.20;36.30;;;;;;4975231;28;20261;-67
2023/06/14 19:27:47;;;;;;;2.30;2.20;;;19.10;36.40;;;;;;4974795;28;20229;-67
2023/06/14 19:30:16;;;;;;;1.70;1.70;;;19.10;36.50;;;;;;4975574;28;20270;-67
2023/06/14 19:32:43;;;;;;;1.98;1.90;;;19.00;36.40;;;;;;4975723;28;20234;-67
2023/06/14 19:35:10;;;;;;;2.80;2.13;;;18.90;37.20;;;;;;4975149;28;20207;-72
2023/06/14 19:37:37;;;;;;;2.63;2.00;;;18.80;37.70;;;;;;4974970;28;20314;-70
2023/06/14 19:40:05;;;;;;;2.20;2.10;;;18.70;38.30;;;;;;4975173;28;20207;-69
2023/06/14 19:42:32;;;;;;;2.45;2.35;;;18.60;39.80;;;;;;4974843;28;20242;-69
2023/06/14 19:44:59;;;;;;;2.40;2.20;;;18.50;40.70;;;;;;4975684;28;20210;-70
2023/06/14 19:47:27;;;;;;;2.28;2.17;;;18.40;41.30;;;;;;4976173;28;20213;-70
2023/06/14 19:49:53;;;;;;;2.20;2.10;;;18.30;42.30;;;;;;4974783;28;20223;-70
2023/06/14 19:52:23;;;;;;;2.20;2.10;;;18.20;43.00;;;;;;4975587;28;20203;-71
2023/06/14 19:54:50;;;;;;;5.50;2.60;;;;;;;;;;4973910;28;20434;-64
2023/06/14 19:57:17;;;;;;;2.10;2.00;;;;;;;;;;4974643;28;20309;-64
2023/06/14 19:59:45;;;;;;;3.80;2.00;;;;;;;;;;4974637;28;20261;-64
2023/06/14 20:02:12;;;;;;;1.67;1.67;;;;;;;;;;4974663;28;20207;-64
2023/06/14 20:04:41;;;;;;;2.08;1.98;;;;;;;;;;4974488;28;20203;-64
2023/06/14 20:07:08;;;;;;;2.35;1.80;;;;;;;;;;4974515;28;20207;-65
2023/06/14 20:09:35;;;;;;;1.85;1.75;;;;;;;;;;4974439;28;20219;-65
2023/06/14 20:12:02;;;;;;;2.00;1.90;;;;;;;;;;4974478;28;20211;-65
2023/06/14 20:14:29;;;;;;;1.75;1.75;;;;;;;;;;4974656;28;20289;-64
2023/06/14 20:16:57;;;;;;;2.30;2.20;;;;;;;;;;4974409;28;20326;-65
2023/06/14 20:19:24;;;;;;;2.08;2.00;;;;;;;;;;4974551;28;20753;-64
2023/06/14 20:21:52;;;;;;;2.97;1.95;;;;;;;;;;4974435;28;20230;-64
2023/06/14 20:24:20;;;;;;;2.50;2.30;;;;;;;;;;4974335;28;20259;-66
2023/06/14 20:26:47;;;;;;;2.30;2.20;;;;;;;;;;4974023;28;20246;-65
2023/06/14 20:29:14;;;;;;;2.00;1.90;;;;;;;;;;4974319;28;20226;-66
2023/06/14 20:31:41;;;;;;;2.45;2.35;;;;;;;;;;4974344;28;20207;-66
2023/06/14 20:34:08;;;;;;;2.40;2.20;;;;;;;;;;4973943;28;20667;-66
2023/06/14 20:36:35;;;;;;;3.22;2.03;;;;;;;;;;4974261;28;20219;-66
2023/06/14 20:39:04;;;;;;;2.20;2.10;;;;;;;;;;4974167;28;20260;-66
2023/06/14 20:41:31;;;;;;;2.10;2.00;;;;;;;;;;4976906;28;20306;-66
2023/06/14 20:44:00;;;;;;;2.00;1.90;;;;;;;;;;4977873;28;20230;-66
2023/06/14 20:46:28;;;;;;;1.67;1.67;;;;;;;;;;4977557;28;20250;-65
2023/06/14 20:48:55;;;;;;;1.92;1.83;;;;;;;;;;4977747;28;20251;-65
2023/06/14 20:51:22;;;;;;;1.95;1.85;;;;;;;;;;4978609;28;20246;-66
2023/06/14 20:53:49;;;;;;;2.17;2.00;;;;;;;;;;4977677;28;20210;-66
2023/06/14 20:56:18;;;;;;;1.98;1.88;;;;;;;;;;4977707;28;20223;-66
2023/06/14 20:58:45;;;;;;;2.53;2.30;;;;;;;;;;4977680;28;20594;-66
2023/06/14 21:01:13;;;;;;;1.70;1.70;;;;;;;;;;4977679;28;20203;-66
2023/06/14 21:03:40;;;;;;;2.35;2.25;;;;;;;;;;4977859;28;20207;-66
2023/06/14 21:06:09;;;;;;;2.30;2.20;;;;;;;;;;4977609;28;20211;-66
2023/06/14 21:08:36;;;;;;;2.58;2.47;;;;;;;;;;4977465;28;20227;-66
2023/06/14 21:11:03;;;;;;;2.45;2.35;;;;;;;;;;4977610;28;20294;-67
2023/06/14 21:13:32;;;;;;;2.72;2.58;;;;;;;;;;4977523;28;20211;-66
2023/06/14 21:16:00;;;;;;;2.75;2.65;;;;;;;;;;4977138;28;20664;-66
2023/06/14 21:18:27;;;;;;;3.10;2.20;;;;;;;;;;4977507;28;20227;-67
2023/06/14 21:20:54;;;;;;;2.53;2.42;;;;;;;;;;4977285;28;20199;-66
2023/06/14 21:23:21;;;;;;;2.35;2.25;;;;;;;;;;4976841;28;20746;-66
2023/06/14 21:25:48;;;;;;;2.75;2.55;;;;;;;;;;4977232;28;20262;-65
2023/06/14 21:28:15;;;;;;;2.13;2.03;;;;;;;;;;4977067;28;20223;-66
